sensor_id;sensor_type;location;lat;lon;timestamp;P1;durP1;ratioP1;P2;durP2;ratioP2
42364;SDS011;28498;54.400;18.566;2023-05-20T00:01:40;5.03;;;2.17;;
42364;SDS011;28498;54.400;18.566;2023-05-20T00:04:07;2.83;;;1.60;;
42364;SDS011;28498;54.400;18.566;2023-05-20T00:06:34;5.78;;;1.40;;
42364;SDS011;28498;54.400;18.566;2023-05-20T00:09:01;4.78;;;1.48;;
42364;SDS011;28498;54.400;18.566;2023-05-20T00:11:28;3.75;;;1.52;;
42364;SDS011;28498;54.400;18.566;2023-05-20T00:13:56;3.28;;;1.65;;
42364;SDS011;28498;54.400;18.566;2023-05-20T00:16:23;6.28;;;2.10;;
42364;SDS011;28498;54.400;18.566;2023-05-20T00:18:50;2.92;;;1.60;;
42364;SDS011;28498;54.400;18.566;2023-05-20T00:21:17;4.00;;;1.77;;
42364;SDS011;28498;54.400;18.566;2023-05-20T00:23:44;2.78;;;1.63;;
42364;SDS011;28498;54.400;18.566;2023-05-20T00:26:11;3.72;;;1.42;;
42364;SDS011;28498;54.400;18.566;2023-05-20T00:28:38;4.95;;;1.60;;
42364;SDS011;28498;54.400;18.566;2023-05-20T00:31:05;5.93;;;2.00;;
42364;SDS011;28498;54.400;18.566;2023-05-20T00:33:32;5.18;;;1.67;;
42364;SDS011;28498;54.400;18.566;2023-05-20T00:36:01;4.25;;;1.73;;
42364;SDS011;28498;54.400;18.566;2023-05-20T00:38:28;3.50;;;1.42;;
42364;SDS011;28498;54.400;18.566;2023-05-20T00:40:55;3.67;;;1.27;;
42364;SDS011;28498;54.400;18.566;2023-05-20T00:43:22;4.50;;;1.90;;
42364;SDS011;28498;54.400;18.566;2023-05-20T00:45:51;3.13;;;1.48;;
42364;SDS011;28498;54.400;18.566;2023-05-20T00:48:19;5.07;;;1.80;;
42364;SDS011;28498;54.400;18.566;2023-05-20T00:50:47;4.15;;;1.50;;
42364;SDS011;28498;54.400;18.566;2023-05-20T00:53:16;4.03;;;1.73;;
42364;SDS011;28498;54.400;18.566;2023-05-20T00:55:46;4.00;;;1.60;;
42364;SDS011;28498;54.400;18.566;2023-05-20T00:58:13;3.55;;;1.30;;
42364;SDS011;28498;54.400;18.566;2023-05-20T01:00:41;3.10;;;1.40;;
42364;SDS011;28498;54.400;18.566;2023-05-20T01:03:08;4.35;;;1.50;;
42364;SDS011;28498;54.400;18.566;2023-05-20T01:05:36;3.40;;;1.20;;
42364;SDS011;28498;54.400;18.566;2023-05-20T01:08:07;5.35;;;1.25;;
42364;SDS011;28498;54.400;18.566;2023-05-20T01:10:34;5.18;;;1.38;;
42364;SDS011;28498;54.400;18.566;2023-05-20T01:13:13;4.75;;;1.67;;
42364;SDS011;28498;54.400;18.566;2023-05-20T01:15:42;3.08;;;1.40;;
42364;SDS011;28498;54.400;18.566;2023-05-20T01:18:13;4.45;;;1.60;;
42364;SDS011;28498;54.400;18.566;2023-05-20T01:20:45;2.42;;;1.33;;
42364;SDS011;28498;54.400;18.566;2023-05-20T01:23:14;4.65;;;1.60;;
42364;SDS011;28498;54.400;18.566;2023-05-20T01:25:42;3.50;;;2.00;;
42364;SDS011;28498;54.400;18.566;2023-05-20T01:28:09;5.38;;;1.70;;
42364;SDS011;28498;54.400;18.566;2023-05-20T01:30:44;3.43;;;1.47;;
42364;SDS011;28498;54.400;18.566;2023-05-20T01:33:17;4.63;;;1.70;;
42364;SDS011;28498;54.400;18.566;2023-05-20T01:35:47;4.38;;;1.63;;
42364;SDS011;28498;54.400;18.566;2023-05-20T01:38:14;2.90;;;1.70;;
42364;SDS011;28498;54.400;18.566;2023-05-20T01:40:43;4.25;;;1.40;;
42364;SDS011;28498;54.400;18.566;2023-05-20T01:43:11;3.78;;;1.50;;
42364;SDS011;28498;54.400;18.566;2023-05-20T01:45:42;4.80;;;1.33;;
42364;SDS011;28498;54.400;18.566;2023-05-20T01:48:10;4.97;;;1.30;;
42364;SDS011;28498;54.400;18.566;2023-05-20T01:50:37;3.03;;;1.40;;
42364;SDS011;28498;54.400;18.566;2023-05-20T01:53:05;4.25;;;1.48;;
42364;SDS011;28498;54.400;18.566;2023-05-20T01:55:34;3.97;;;1.50;;
42364;SDS011;28498;54.400;18.566;2023-05-20T01:58:01;3.42;;;1.40;;
42364;SDS011;28498;54.400;18.566;2023-05-20T02:00:30;5.03;;;1.65;;
42364;SDS011;28498;54.400;18.566;2023-05-20T02:02:59;5.93;;;1.40;;
42364;SDS011;28498;54.400;18.566;2023-05-20T02:05:26;3.95;;;1.45;;
42364;SDS011;28498;54.400;18.566;2023-05-20T02:07:53;4.22;;;1.20;;
42364;SDS011;28498;54.400;18.566;2023-05-20T02:10:20;8.40;;;1.77;;
42364;SDS011;28498;54.400;18.566;2023-05-20T02:12:47;4.80;;;1.40;;
42364;SDS011;28498;54.400;18.566;2023-05-20T02:15:14;3.72;;;1.58;;
42364;SDS011;28498;54.400;18.566;2023-05-20T02:17:41;4.80;;;1.33;;
42364;SDS011;28498;54.400;18.566;2023-05-20T02:20:12;2.83;;;1.50;;
42364;SDS011;28498;54.400;18.566;2023-05-20T02:22:39;4.07;;;1.40;;
42364;SDS011;28498;54.400;18.566;2023-05-20T02:25:06;5.20;;;1.83;;
42364;SDS011;28498;54.400;18.566;2023-05-20T02:27:34;2.80;;;1.30;;
42364;SDS011;28498;54.400;18.566;2023-05-20T02:30:01;2.30;;;1.13;;
42364;SDS011;28498;54.400;18.566;2023-05-20T02:32:28;3.58;;;1.30;;
42364;SDS011;28498;54.400;18.566;2023-05-20T02:34:55;2.95;;;1.30;;
42364;SDS011;28498;54.400;18.566;2023-05-20T02:37:22;3.85;;;1.67;;
42364;SDS011;28498;54.400;18.566;2023-05-20T02:39:49;2.95;;;1.30;;
42364;SDS011;28498;54.400;18.566;2023-05-20T02:42:16;2.63;;;1.38;;
42364;SDS011;28498;54.400;18.566;2023-05-20T02:44:43;4.07;;;1.50;;
42364;SDS011;28498;54.400;18.566;2023-05-20T02:47:10;3.75;;;1.33;;
42364;SDS011;28498;54.400;18.566;2023-05-20T02:49:37;4.15;;;1.60;;
42364;SDS011;28498;54.400;18.566;2023-05-20T02:52:04;6.38;;;1.65;;
42364;SDS011;28498;54.400;18.566;2023-05-20T02:54:32;4.30;;;1.42;;
42364;SDS011;28498;54.400;18.566;2023-05-20T02:56:59;3.38;;;1.65;;
42364;SDS011;28498;54.400;18.566;2023-05-20T02:59:26;4.03;;;1.45;;
42364;SDS011;28498;54.400;18.566;2023-05-20T03:01:53;4.80;;;1.40;;
42364;SDS011;28498;54.400;18.566;2023-05-20T03:04:20;4.80;;;1.50;;
42364;SDS011;28498;54.400;18.566;2023-05-20T03:06:47;5.15;;;1.98;;
42364;SDS011;28498;54.400;18.566;2023-05-20T03:09:14;3.58;;;1.33;;
42364;SDS011;28498;54.400;18.566;2023-05-20T03:11:41;3.38;;;1.27;;
42364;SDS011;28498;54.400;18.566;2023-05-20T03:14:08;4.57;;;1.63;;
42364;SDS011;28498;54.400;18.566;2023-05-20T03:16:35;3.30;;;1.42;;
42364;SDS011;28498;54.400;18.566;2023-05-20T03:19:02;5.13;;;2.13;;
42364;SDS011;28498;54.400;18.566;2023-05-20T03:21:29;3.70;;;1.38;;
42364;SDS011;28498;54.400;18.566;2023-05-20T03:23:56;5.22;;;1.60;;
42364;SDS011;28498;54.400;18.566;2023-05-20T03:26:23;3.75;;;1.50;;
42364;SDS011;28498;54.400;18.566;2023-05-20T03:28:51;5.10;;;1.33;;
42364;SDS011;28498;54.400;18.566;2023-05-20T03:31:17;5.35;;;1.35;;
42364;SDS011;28498;54.400;18.566;2023-05-20T03:33:45;3.90;;;1.40;;
42364;SDS011;28498;54.400;18.566;2023-05-20T03:36:12;6.50;;;1.75;;
42364;SDS011;28498;54.400;18.566;2023-05-20T03:38:39;5.40;;;1.77;;
42364;SDS011;28498;54.400;18.566;2023-05-20T03:41:06;3.72;;;1.67;;
42364;SDS011;28498;54.400;18.566;2023-05-20T03:43:33;3.92;;;1.55;;
42364;SDS011;28498;54.400;18.566;2023-05-20T03:46:00;3.70;;;1.55;;
42364;SDS011;28498;54.400;18.566;2023-05-20T03:48:27;4.22;;;1.55;;
42364;SDS011;28498;54.400;18.566;2023-05-20T03:50:54;3.88;;;1.65;;
42364;SDS011;28498;54.400;18.566;2023-05-20T03:53:21;3.90;;;1.80;;
42364;SDS011;28498;54.400;18.566;2023-05-20T03:55:48;6.55;;;1.50;;
42364;SDS011;28498;54.400;18.566;2023-05-20T03:58:15;4.47;;;1.70;;
42364;SDS011;28498;54.400;18.566;2023-05-20T04:00:42;5.20;;;1.48;;
42364;SDS011;28498;54.400;18.566;2023-05-20T04:03:09;4.57;;;1.75;;
42364;SDS011;28498;54.400;18.566;2023-05-20T04:05:37;3.58;;;1.45;;
42364;SDS011;28498;54.400;18.566;2023-05-20T04:08:04;4.25;;;1.45;;
42364;SDS011;28498;54.400;18.566;2023-05-20T04:10:31;3.28;;;1.45;;
42364;SDS011;28498;54.400;18.566;2023-05-20T04:12:59;3.83;;;1.80;;
42364;SDS011;28498;54.400;18.566;2023-05-20T04:15:26;5.10;;;2.10;;
42364;SDS011;28498;54.400;18.566;2023-05-20T04:17:55;3.03;;;1.45;;
42364;SDS011;28498;54.400;18.566;2023-05-20T04:20:22;4.45;;;1.80;;
42364;SDS011;28498;54.400;18.566;2023-05-20T04:22:49;6.78;;;1.63;;
42364;SDS011;28498;54.400;18.566;2023-05-20T04:25:17;6.18;;;1.23;;
42364;SDS011;28498;54.400;18.566;2023-05-20T04:27:44;4.43;;;1.77;;
42364;SDS011;28498;54.400;18.566;2023-05-20T04:30:12;2.97;;;1.48;;
42364;SDS011;28498;54.400;18.566;2023-05-20T04:32:39;4.47;;;1.67;;
42364;SDS011;28498;54.400;18.566;2023-05-20T04:35:07;3.55;;;1.45;;
42364;SDS011;28498;54.400;18.566;2023-05-20T04:37:38;5.38;;;1.85;;
42364;SDS011;28498;54.400;18.566;2023-05-20T04:40:08;5.32;;;1.60;;
42364;SDS011;28498;54.400;18.566;2023-05-20T04:42:35;4.93;;;1.52;;
42364;SDS011;28498;54.400;18.566;2023-05-20T04:45:03;6.20;;;2.00;;
42364;SDS011;28498;54.400;18.566;2023-05-20T04:47:31;6.60;;;1.60;;
42364;SDS011;28498;54.400;18.566;2023-05-20T04:50:05;4.27;;;1.50;;
42364;SDS011;28498;54.400;18.566;2023-05-20T04:52:39;5.93;;;2.05;;
42364;SDS011;28498;54.400;18.566;2023-05-20T04:55:11;6.30;;;1.75;;
42364;SDS011;28498;54.400;18.566;2023-05-20T04:57:38;4.75;;;1.67;;
42364;SDS011;28498;54.400;18.566;2023-05-20T05:00:08;5.57;;;1.70;;
42364;SDS011;28498;54.400;18.566;2023-05-20T05:02:36;6.32;;;3.10;;
42364;SDS011;28498;54.400;18.566;2023-05-20T05:05:04;5.38;;;1.90;;
42364;SDS011;28498;54.400;18.566;2023-05-20T05:07:32;3.70;;;1.95;;
42364;SDS011;28498;54.400;18.566;2023-05-20T05:09:59;9.07;;;2.35;;
42364;SDS011;28498;54.400;18.566;2023-05-20T05:12:26;3.38;;;1.40;;
42364;SDS011;28498;54.400;18.566;2023-05-20T05:14:53;4.65;;;1.80;;
42364;SDS011;28498;54.400;18.566;2023-05-20T05:17:20;3.58;;;1.45;;
42364;SDS011;28498;54.400;18.566;2023-05-20T05:19:47;4.97;;;2.30;;
42364;SDS011;28498;54.400;18.566;2023-05-20T05:22:14;7.30;;;1.90;;
42364;SDS011;28498;54.400;18.566;2023-05-20T05:24:41;5.47;;;1.80;;
42364;SDS011;28498;54.400;18.566;2023-05-20T05:27:08;3.72;;;1.80;;
42364;SDS011;28498;54.400;18.566;2023-05-20T05:29:35;6.05;;;2.00;;
42364;SDS011;28498;54.400;18.566;2023-05-20T05:32:02;3.53;;;1.70;;
42364;SDS011;28498;54.400;18.566;2023-05-20T05:34:30;5.35;;;1.80;;
42364;SDS011;28498;54.400;18.566;2023-05-20T05:36:57;4.30;;;1.77;;
42364;SDS011;28498;54.400;18.566;2023-05-20T05:39:24;6.55;;;1.83;;
42364;SDS011;28498;54.400;18.566;2023-05-20T05:41:50;5.70;;;1.65;;
42364;SDS011;28498;54.400;18.566;2023-05-20T05:44:19;4.78;;;1.95;;
42364;SDS011;28498;54.400;18.566;2023-05-20T05:46:46;4.65;;;1.80;;
42364;SDS011;28498;54.400;18.566;2023-05-20T05:49:13;4.80;;;1.90;;
42364;SDS011;28498;54.400;18.566;2023-05-20T05:51:40;3.45;;;1.80;;
42364;SDS011;28498;54.400;18.566;2023-05-20T05:54:07;6.22;;;1.90;;
42364;SDS011;28498;54.400;18.566;2023-05-20T05:56:34;4.32;;;1.73;;
42364;SDS011;28498;54.400;18.566;2023-05-20T05:59:01;6.35;;;2.22;;
42364;SDS011;28498;54.400;18.566;2023-05-20T06:01:29;4.13;;;2.13;;
42364;SDS011;28498;54.400;18.566;2023-05-20T06:03:56;7.28;;;2.15;;
42364;SDS011;28498;54.400;18.566;2023-05-20T06:06:24;5.82;;;1.70;;
42364;SDS011;28498;54.400;18.566;2023-05-20T06:08:51;3.88;;;2.13;;
42364;SDS011;28498;54.400;18.566;2023-05-20T06:11:18;3.65;;;2.00;;
42364;SDS011;28498;54.400;18.566;2023-05-20T06:13:46;5.43;;;2.05;;
42364;SDS011;28498;54.400;18.566;2023-05-20T06:16:13;6.00;;;2.72;;
42364;SDS011;28498;54.400;18.566;2023-05-20T06:18:40;4.18;;;1.85;;
42364;SDS011;28498;54.400;18.566;2023-05-20T06:21:07;7.05;;;2.42;;
42364;SDS011;28498;54.400;18.566;2023-05-20T06:23:34;3.17;;;1.95;;
42364;SDS011;28498;54.400;18.566;2023-05-20T06:26:01;5.35;;;2.20;;
42364;SDS011;28498;54.400;18.566;2023-05-20T06:28:29;7.78;;;2.50;;
42364;SDS011;28498;54.400;18.566;2023-05-20T06:30:56;4.88;;;2.38;;
42364;SDS011;28498;54.400;18.566;2023-05-20T06:33:23;8.07;;;2.20;;
42364;SDS011;28498;54.400;18.566;2023-05-20T06:35:51;6.40;;;2.20;;
42364;SDS011;28498;54.400;18.566;2023-05-20T06:38:19;7.97;;;3.35;;
42364;SDS011;28498;54.400;18.566;2023-05-20T06:40:49;4.72;;;2.22;;
42364;SDS011;28498;54.400;18.566;2023-05-20T06:43:16;8.85;;;2.53;;
42364;SDS011;28498;54.400;18.566;2023-05-20T06:45:43;3.90;;;1.83;;
42364;SDS011;28498;54.400;18.566;2023-05-20T06:48:11;5.50;;;2.83;;
42364;SDS011;28498;54.400;18.566;2023-05-20T06:50:38;6.32;;;2.00;;
42364;SDS011;28498;54.400;18.566;2023-05-20T06:53:05;6.60;;;2.28;;
42364;SDS011;28498;54.400;18.566;2023-05-20T06:55:32;9.48;;;2.60;;
42364;SDS011;28498;54.400;18.566;2023-05-20T06:57:59;5.72;;;1.90;;
42364;SDS011;28498;54.400;18.566;2023-05-20T07:00:26;5.03;;;1.95;;
42364;SDS011;28498;54.400;18.566;2023-05-20T07:02:53;6.18;;;2.42;;
42364;SDS011;28498;54.400;18.566;2023-05-20T07:05:20;4.97;;;2.03;;
42364;SDS011;28498;54.400;18.566;2023-05-20T07:07:47;7.63;;;2.20;;
42364;SDS011;28498;54.400;18.566;2023-05-20T07:10:14;7.13;;;2.13;;
42364;SDS011;28498;54.400;18.566;2023-05-20T07:12:41;9.95;;;2.20;;
42364;SDS011;28498;54.400;18.566;2023-05-20T07:15:08;3.20;;;1.90;;
42364;SDS011;28498;54.400;18.566;2023-05-20T07:17:35;5.20;;;2.35;;
42364;SDS011;28498;54.400;18.566;2023-05-20T07:20:02;4.90;;;1.98;;
42364;SDS011;28498;54.400;18.566;2023-05-20T07:22:30;5.00;;;2.55;;
42364;SDS011;28498;54.400;18.566;2023-05-20T07:24:57;6.05;;;2.10;;
42364;SDS011;28498;54.400;18.566;2023-05-20T07:27:25;5.85;;;2.38;;
42364;SDS011;28498;54.400;18.566;2023-05-20T07:29:52;6.28;;;2.00;;
42364;SDS011;28498;54.400;18.566;2023-05-20T07:32:19;6.63;;;2.30;;
42364;SDS011;28498;54.400;18.566;2023-05-20T07:34:46;8.15;;;2.45;;
42364;SDS011;28498;54.400;18.566;2023-05-20T07:37:13;5.38;;;2.30;;
42364;SDS011;28498;54.400;18.566;2023-05-20T07:39:41;6.00;;;2.22;;
42364;SDS011;28498;54.400;18.566;2023-05-20T07:42:08;7.50;;;2.53;;
42364;SDS011;28498;54.400;18.566;2023-05-20T07:44:35;4.85;;;2.20;;
42364;SDS011;28498;54.400;18.566;2023-05-20T07:47:02;4.63;;;1.92;;
42364;SDS011;28498;54.400;18.566;2023-05-20T07:49:30;5.03;;;2.25;;
42364;SDS011;28498;54.400;18.566;2023-05-20T07:51:56;5.07;;;2.22;;
42364;SDS011;28498;54.400;18.566;2023-05-20T07:54:27;6.85;;;2.40;;
42364;SDS011;28498;54.400;18.566;2023-05-20T07:56:54;6.10;;;2.38;;
42364;SDS011;28498;54.400;18.566;2023-05-20T07:59:21;6.85;;;2.42;;
42364;SDS011;28498;54.400;18.566;2023-05-20T08:01:48;7.43;;;2.92;;
42364;SDS011;28498;54.400;18.566;2023-05-20T08:04:15;5.13;;;3.33;;
42364;SDS011;28498;54.400;18.566;2023-05-20T08:06:42;8.57;;;2.83;;
42364;SDS011;28498;54.400;18.566;2023-05-20T08:09:09;6.40;;;2.50;;
42364;SDS011;28498;54.400;18.566;2023-05-20T08:11:37;5.80;;;2.55;;
42364;SDS011;28498;54.400;18.566;2023-05-20T08:14:04;5.68;;;2.13;;
42364;SDS011;28498;54.400;18.566;2023-05-20T08:16:31;5.22;;;2.13;;
42364;SDS011;28498;54.400;18.566;2023-05-20T08:18:58;7.30;;;2.40;;
42364;SDS011;28498;54.400;18.566;2023-05-20T08:25:13;4.45;;;2.17;;
42364;SDS011;28498;54.400;18.566;2023-05-20T08:27:40;5.28;;;2.40;;
42364;SDS011;28498;54.400;18.566;2023-05-20T08:30:07;5.18;;;2.25;;
42364;SDS011;28498;54.400;18.566;2023-05-20T08:32:35;9.30;;;2.38;;
42364;SDS011;28498;54.400;18.566;2023-05-20T08:35:03;4.25;;;2.25;;
42364;SDS011;28498;54.400;18.566;2023-05-20T08:37:30;8.35;;;2.60;;
42364;SDS011;28498;54.400;18.566;2023-05-20T08:39:57;3.97;;;2.25;;
42364;SDS011;28498;54.400;18.566;2023-05-20T08:42:24;6.75;;;2.72;;
42364;SDS011;28498;54.400;18.566;2023-05-20T08:44:54;4.35;;;2.20;;
42364;SDS011;28498;54.400;18.566;2023-05-20T08:47:22;5.88;;;2.42;;
42364;SDS011;28498;54.400;18.566;2023-05-20T08:49:50;4.88;;;2.47;;
42364;SDS011;28498;54.400;18.566;2023-05-20T08:52:17;8.50;;;2.70;;
42364;SDS011;28498;54.400;18.566;2023-05-20T08:54:47;4.63;;;2.30;;
42364;SDS011;28498;54.400;18.566;2023-05-20T08:57:15;5.28;;;2.55;;
42364;SDS011;28498;54.400;18.566;2023-05-20T08:59:44;7.28;;;2.47;;
42364;SDS011;28498;54.400;18.566;2023-05-20T09:02:16;8.30;;;2.90;;
42364;SDS011;28498;54.400;18.566;2023-05-20T09:04:43;4.95;;;2.63;;
42364;SDS011;28498;54.400;18.566;2023-05-20T09:07:10;6.78;;;2.75;;
42364;SDS011;28498;54.400;18.566;2023-05-20T09:09:37;8.68;;;2.58;;
42364;SDS011;28498;54.400;18.566;2023-05-20T09:12:04;6.10;;;3.05;;
42364;SDS011;28498;54.400;18.566;2023-05-20T09:14:32;5.22;;;2.58;;
42364;SDS011;28498;54.400;18.566;2023-05-20T09:16:59;4.70;;;2.50;;
42364;SDS011;28498;54.400;18.566;2023-05-20T09:19:26;6.95;;;2.95;;
42364;SDS011;28498;54.400;18.566;2023-05-20T09:21:53;5.32;;;2.47;;
42364;SDS011;28498;54.400;18.566;2023-05-20T09:24:23;5.55;;;2.60;;
42364;SDS011;28498;54.400;18.566;2023-05-20T09:26:52;6.30;;;2.83;;
42364;SDS011;28498;54.400;18.566;2023-05-20T09:29:19;7.60;;;2.50;;
42364;SDS011;28498;54.400;18.566;2023-05-20T09:31:47;5.82;;;2.80;;
42364;SDS011;28498;54.400;18.566;2023-05-20T09:34:15;5.13;;;2.50;;
42364;SDS011;28498;54.400;18.566;2023-05-20T09:36:43;4.70;;;2.22;;
42364;SDS011;28498;54.400;18.566;2023-05-20T09:39:15;5.18;;;2.33;;
42364;SDS011;28498;54.400;18.566;2023-05-20T09:44:22;5.53;;;3.10;;
42364;SDS011;28498;54.400;18.566;2023-05-20T09:46:49;6.05;;;2.75;;
42364;SDS011;28498;54.400;18.566;2023-05-20T09:49:18;5.28;;;3.10;;
42364;SDS011;28498;54.400;18.566;2023-05-20T09:51:48;4.35;;;2.53;;
42364;SDS011;28498;54.400;18.566;2023-05-20T09:54:17;6.65;;;2.90;;
42364;SDS011;28498;54.400;18.566;2023-05-20T09:56:45;4.72;;;2.70;;
42364;SDS011;28498;54.400;18.566;2023-05-20T09:59:16;6.18;;;3.03;;
42364;SDS011;28498;54.400;18.566;2023-05-20T10:01:46;6.60;;;2.80;;
42364;SDS011;28498;54.400;18.566;2023-05-20T10:04:14;8.40;;;3.00;;
42364;SDS011;28498;54.400;18.566;2023-05-20T10:07:03;8.38;;;3.10;;
42364;SDS011;28498;54.400;18.566;2023-05-20T10:20:44;4.45;;;2.88;;
42364;SDS011;28498;54.400;18.566;2023-05-20T10:23:22;9.43;;;2.85;;
42364;SDS011;28498;54.400;18.566;2023-05-20T10:25:51;6.70;;;2.83;;
42364;SDS011;28498;54.400;18.566;2023-05-20T10:28:29;7.60;;;3.33;;
42364;SDS011;28498;54.400;18.566;2023-05-20T10:30:58;10.20;;;3.13;;
42364;SDS011;28498;54.400;18.566;2023-05-20T10:33:26;8.05;;;3.08;;
42364;SDS011;28498;54.400;18.566;2023-05-20T10:35:56;7.03;;;2.75;;
42364;SDS011;28498;54.400;18.566;2023-05-20T10:44:42;8.98;;;3.28;;
42364;SDS011;28498;54.400;18.566;2023-05-20T10:47:10;15.50;;;4.05;;
42364;SDS011;28498;54.400;18.566;2023-05-20T10:49:43;6.43;;;3.25;;
42364;SDS011;28498;54.400;18.566;2023-05-20T10:52:13;7.07;;;2.83;;
42364;SDS011;28498;54.400;18.566;2023-05-20T10:54:45;10.75;;;4.15;;
42364;SDS011;28498;54.400;18.566;2023-05-20T10:57:16;5.80;;;3.03;;
42364;SDS011;28498;54.400;18.566;2023-05-20T10:59:44;6.78;;;2.95;;
42364;SDS011;28498;54.400;18.566;2023-05-20T11:02:14;7.15;;;3.00;;
42364;SDS011;28498;54.400;18.566;2023-05-20T11:04:42;6.10;;;2.90;;
42364;SDS011;28498;54.400;18.566;2023-05-20T11:07:10;10.40;;;3.25;;
42364;SDS011;28498;54.400;18.566;2023-05-20T11:09:37;7.93;;;3.10;;
42364;SDS011;28498;54.400;18.566;2023-05-20T11:12:04;8.48;;;3.95;;
42364;SDS011;28498;54.400;18.566;2023-05-20T11:14:32;6.82;;;2.65;;
42364;SDS011;28498;54.400;18.566;2023-05-20T11:17:00;5.72;;;2.75;;
42364;SDS011;28498;54.400;18.566;2023-05-20T11:19:27;10.75;;;4.18;;
42364;SDS011;28498;54.400;18.566;2023-05-20T11:21:54;6.22;;;2.90;;
42364;SDS011;28498;54.400;18.566;2023-05-20T11:24:22;6.70;;;3.13;;
42364;SDS011;28498;54.400;18.566;2023-05-20T11:26:54;6.78;;;3.10;;
42364;SDS011;28498;54.400;18.566;2023-05-20T11:29:22;6.03;;;3.30;;
42364;SDS011;28498;54.400;18.566;2023-05-20T11:31:52;6.10;;;2.90;;
42364;SDS011;28498;54.400;18.566;2023-05-20T11:34:22;8.32;;;3.03;;
42364;SDS011;28498;54.400;18.566;2023-05-20T11:36:56;6.32;;;2.80;;
42364;SDS011;28498;54.400;18.566;2023-05-20T11:39:24;8.65;;;3.92;;
42364;SDS011;28498;54.400;18.566;2023-05-20T11:41:54;7.07;;;3.20;;
42364;SDS011;28498;54.400;18.566;2023-05-20T11:44:23;8.10;;;2.80;;
42364;SDS011;28498;54.400;18.566;2023-05-20T11:46:50;6.32;;;3.63;;
42364;SDS011;28498;54.400;18.566;2023-05-20T11:49:17;9.50;;;3.67;;
42364;SDS011;28498;54.400;18.566;2023-05-20T11:51:44;9.32;;;4.75;;
42364;SDS011;28498;54.400;18.566;2023-05-20T11:54:11;7.32;;;3.15;;
42364;SDS011;28498;54.400;18.566;2023-05-20T11:56:38;8.52;;;4.15;;
42364;SDS011;28498;54.400;18.566;2023-05-20T11:59:08;8.00;;;3.65;;
42364;SDS011;28498;54.400;18.566;2023-05-20T12:01:37;7.28;;;3.72;;
42364;SDS011;28498;54.400;18.566;2023-05-20T12:04:11;7.10;;;3.47;;
42364;SDS011;28498;54.400;18.566;2023-05-20T12:06:43;6.40;;;3.30;;
42364;SDS011;28498;54.400;18.566;2023-05-20T12:09:10;6.38;;;3.45;;
42364;SDS011;28498;54.400;18.566;2023-05-20T12:11:37;5.57;;;3.00;;
42364;SDS011;28498;54.400;18.566;2023-05-20T12:14:07;9.55;;;3.58;;
42364;SDS011;28498;54.400;18.566;2023-05-20T12:16:35;5.93;;;3.10;;
42364;SDS011;28498;54.400;18.566;2023-05-20T12:19:03;8.13;;;4.43;;
42364;SDS011;28498;54.400;18.566;2023-05-20T12:21:30;7.60;;;3.28;;
42364;SDS011;28498;54.400;18.566;2023-05-20T12:23:58;8.43;;;3.70;;
42364;SDS011;28498;54.400;18.566;2023-05-20T12:26:25;9.85;;;3.40;;
42364;SDS011;28498;54.400;18.566;2023-05-20T12:28:54;4.50;;;3.15;;
42364;SDS011;28498;54.400;18.566;2023-05-20T12:31:22;7.28;;;3.75;;
42364;SDS011;28498;54.400;18.566;2023-05-20T12:33:49;7.05;;;3.50;;
42364;SDS011;28498;54.400;18.566;2023-05-20T12:36:16;6.75;;;3.25;;
42364;SDS011;28498;54.400;18.566;2023-05-20T12:38:45;7.97;;;3.30;;
42364;SDS011;28498;54.400;18.566;2023-05-20T12:41:13;7.93;;;3.17;;
42364;SDS011;28498;54.400;18.566;2023-05-20T12:43:40;6.78;;;2.90;;
42364;SDS011;28498;54.400;18.566;2023-05-20T12:46:07;5.97;;;2.97;;
42364;SDS011;28498;54.400;18.566;2023-05-20T12:48:34;8.65;;;2.80;;
42364;SDS011;28498;54.400;18.566;2023-05-20T12:51:02;5.38;;;3.17;;
42364;SDS011;28498;54.400;18.566;2023-05-20T12:53:29;7.75;;;3.13;;
42364;SDS011;28498;54.400;18.566;2023-05-20T12:55:56;8.00;;;3.17;;
42364;SDS011;28498;54.400;18.566;2023-05-20T12:58:23;6.43;;;3.85;;
42364;SDS011;28498;54.400;18.566;2023-05-20T13:00:50;6.47;;;3.72;;
42364;SDS011;28498;54.400;18.566;2023-05-20T13:03:17;7.45;;;3.92;;
42364;SDS011;28498;54.400;18.566;2023-05-20T13:05:44;9.65;;;4.25;;
42364;SDS011;28498;54.400;18.566;2023-05-20T13:08:11;5.97;;;3.60;;
42364;SDS011;28498;54.400;18.566;2023-05-20T13:10:40;6.05;;;3.35;;
42364;SDS011;28498;54.400;18.566;2023-05-20T13:13:07;11.38;;;4.25;;
42364;SDS011;28498;54.400;18.566;2023-05-20T13:15:34;6.38;;;4.03;;
42364;SDS011;28498;54.400;18.566;2023-05-20T13:18:02;7.63;;;2.90;;
42364;SDS011;28498;54.400;18.566;2023-05-20T13:20:32;5.22;;;2.83;;
42364;SDS011;28498;54.400;18.566;2023-05-20T13:22:59;6.25;;;2.83;;
42364;SDS011;28498;54.400;18.566;2023-05-20T13:25:26;5.30;;;2.45;;
42364;SDS011;28498;54.400;18.566;2023-05-20T13:27:53;7.03;;;2.97;;
42364;SDS011;28498;54.400;18.566;2023-05-20T13:30:21;4.95;;;2.90;;
42364;SDS011;28498;54.400;18.566;2023-05-20T13:32:48;8.15;;;3.17;;
42364;SDS011;28498;54.400;18.566;2023-05-20T13:35:15;10.98;;;3.05;;
42364;SDS011;28498;54.400;18.566;2023-05-20T13:37:42;8.05;;;2.90;;
42364;SDS011;28498;54.400;18.566;2023-05-20T13:40:10;7.97;;;3.17;;
42364;SDS011;28498;54.400;18.566;2023-05-20T13:42:37;6.22;;;2.88;;
42364;SDS011;28498;54.400;18.566;2023-05-20T13:45:04;4.57;;;2.60;;
42364;SDS011;28498;54.400;18.566;2023-05-20T13:47:32;6.78;;;3.00;;
42364;SDS011;28498;54.400;18.566;2023-05-20T13:49:59;8.95;;;3.15;;
42364;SDS011;28498;54.400;18.566;2023-05-20T13:52:28;9.73;;;2.90;;
42364;SDS011;28498;54.400;18.566;2023-05-20T13:54:55;6.53;;;2.70;;
42364;SDS011;28498;54.400;18.566;2023-05-20T13:57:22;5.63;;;2.38;;
42364;SDS011;28498;54.400;18.566;2023-05-20T13:59:49;4.60;;;2.78;;
42364;SDS011;28498;54.400;18.566;2023-05-20T14:02:16;7.57;;;3.42;;
42364;SDS011;28498;54.400;18.566;2023-05-20T14:04:43;4.95;;;2.58;;
42364;SDS011;28498;54.400;18.566;2023-05-20T14:07:12;6.15;;;2.95;;
42364;SDS011;28498;54.400;18.566;2023-05-20T14:09:39;10.80;;;2.92;;
42364;SDS011;28498;54.400;18.566;2023-05-20T14:12:06;6.93;;;2.80;;
42364;SDS011;28498;54.400;18.566;2023-05-20T14:14:33;4.60;;;2.60;;
42364;SDS011;28498;54.400;18.566;2023-05-20T14:17:00;7.82;;;3.00;;
42364;SDS011;28498;54.400;18.566;2023-05-20T14:19:27;5.43;;;2.42;;
42364;SDS011;28498;54.400;18.566;2023-05-20T14:21:55;5.13;;;2.05;;
42364;SDS011;28498;54.400;18.566;2023-05-20T14:24:24;8.70;;;3.78;;
42364;SDS011;28498;54.400;18.566;2023-05-20T14:26:51;7.97;;;2.90;;
42364;SDS011;28498;54.400;18.566;2023-05-20T14:29:18;7.90;;;2.35;;
42364;SDS011;28498;54.400;18.566;2023-05-20T14:31:45;5.60;;;2.15;;
42364;SDS011;28498;54.400;18.566;2023-05-20T14:34:12;4.57;;;2.15;;
42364;SDS011;28498;54.400;18.566;2023-05-20T14:36:39;4.85;;;2.10;;
42364;SDS011;28498;54.400;18.566;2023-05-20T14:39:06;7.25;;;2.20;;
42364;SDS011;28498;54.400;18.566;2023-05-20T14:41:33;11.73;;;3.05;;
42364;SDS011;28498;54.400;18.566;2023-05-20T14:44:00;4.55;;;2.35;;
42364;SDS011;28498;54.400;18.566;2023-05-20T14:46:27;5.30;;;2.00;;
42364;SDS011;28498;54.400;18.566;2023-05-20T14:48:54;5.03;;;2.42;;
42364;SDS011;28498;54.400;18.566;2023-05-20T14:51:21;7.07;;;2.95;;
42364;SDS011;28498;54.400;18.566;2023-05-20T14:53:48;4.80;;;2.58;;
42364;SDS011;28498;54.400;18.566;2023-05-20T14:56:15;4.90;;;2.60;;
42364;SDS011;28498;54.400;18.566;2023-05-20T14:58:42;5.60;;;2.10;;
42364;SDS011;28498;54.400;18.566;2023-05-20T15:01:09;5.53;;;2.45;;